createdAt,value
2023-05-25T00:00:10.310Z,15.47
2023-05-25T00:01:10.301Z,15.55
2023-05-25T00:02:10.339Z,15.51
2023-05-25T00:03:10.427Z,15.54
2023-05-25T00:04:10.419Z,15.47
2023-05-25T00:05:10.250Z,15.51
2023-05-25T00:06:10.258Z,15.52
2023-05-25T00:07:10.235Z,15.46
2023-05-25T00:08:10.219Z,15.54
2023-05-25T00:09:10.224Z,15.47
2023-05-25T00:10:10.227Z,15.46
2023-05-25T00:11:10.187Z,15.51
2023-05-25T00:12:10.196Z,15.49
2023-05-25T00:13:10.190Z,15.47
2023-05-25T00:14:10.177Z,15.51
2023-05-25T00:15:10.176Z,15.58
2023-05-25T00:16:10.139Z,15.54
2023-05-25T00:17:10.297Z,15.58
2023-05-25T00:18:10.113Z,15.54
2023-05-25T00:19:10.099Z,15.59
2023-05-25T00:20:10.157Z,15.59
2023-05-25T00:21:10.107Z,15.59
2023-05-25T00:22:10.130Z,15.67
2023-05-25T00:23:10.051Z,15.67
2023-05-25T00:24:10.062Z,15.68
2023-05-25T00:25:10.038Z,15.70
2023-05-25T00:26:10.046Z,15.77
2023-05-25T00:27:10.039Z,15.77
2023-05-25T00:28:10.055Z,15.79
2023-05-25T00:29:09.980Z,15.76
2023-05-25T00:30:10.022Z,15.76
2023-05-25T00:31:10.018Z,15.77
2023-05-25T00:32:09.951Z,15.75
2023-05-25T00:33:10.086Z,15.77
2023-05-25T00:34:09.923Z,15.83
2023-05-25T00:35:09.932Z,15.83
2023-05-25T00:36:09.901Z,15.88
2023-05-25T00:37:09.910Z,15.82
2023-05-25T00:38:09.882Z,15.88
2023-05-25T00:39:09.894Z,15.86
2023-05-25T00:40:09.858Z,15.82
2023-05-25T00:41:09.865Z,15.88
2023-05-25T00:42:09.835Z,15.86
2023-05-25T00:43:09.848Z,15.86
2023-05-25T00:44:09.834Z,15.94
2023-05-25T00:45:09.818Z,15.84
2023-05-25T00:46:09.796Z,15.94
2023-05-25T00:47:09.803Z,15.94
2023-05-25T00:48:09.839Z,15.94
2023-05-25T00:49:09.754Z,15.94
2023-05-25T00:50:09.861Z,15.94
2023-05-25T00:51:09.752Z,15.86
2023-05-25T00:52:09.787Z,15.90
2023-05-25T00:53:09.711Z,15.98
2023-05-25T00:54:09.710Z,16.00
2023-05-25T00:55:09.686Z,16.02
2023-05-25T00:56:09.686Z,16.01
2023-05-25T00:57:09.692Z,15.97
2023-05-25T00:58:09.704Z,16.01
2023-05-25T00:59:09.654Z,15.92
2023-05-25T01:00:09.653Z,16.08
2023-05-25T01:01:09.627Z,16.08
2023-05-25T01:02:09.643Z,16.08
2023-05-25T01:03:11.039Z,16.10
2023-05-25T01:04:09.705Z,16.01
2023-05-25T01:05:09.567Z,16.09
2023-05-25T01:06:09.561Z,16.02
2023-05-25T01:07:09.560Z,16.04
2023-05-25T01:08:09.540Z,16.09
2023-05-25T01:09:09.560Z,16.08
2023-05-25T01:10:09.514Z,16.08
2023-05-25T01:11:09.505Z,16.08
2023-05-25T01:12:09.495Z,16.09
2023-05-25T01:13:09.476Z,16.04
2023-05-25T01:14:09.473Z,16.08
2023-05-25T01:15:09.493Z,16.08
2023-05-25T01:16:09.503Z,16.04
2023-05-25T01:17:09.433Z,16.02
2023-05-25T01:18:09.427Z,16.04
2023-05-25T01:19:09.409Z,16.10
2023-05-25T01:20:11.611Z,16.09
2023-05-25T01:21:09.415Z,16.12
2023-05-25T01:22:09.400Z,16.10
2023-05-25T01:23:09.368Z,16.10
2023-05-25T01:24:09.355Z,16.12
2023-05-25T01:25:09.411Z,16.08
2023-05-25T01:26:09.328Z,16.21
2023-05-25T01:27:09.368Z,16.15
2023-05-25T01:28:09.327Z,16.16
2023-05-25T01:29:09.321Z,16.20
2023-05-25T01:30:09.292Z,16.13
2023-05-25T01:31:09.276Z,16.20
2023-05-25T01:32:09.488Z,16.23
2023-05-25T01:33:09.320Z,16.17
2023-05-25T01:34:09.266Z,16.21
2023-05-25T01:35:09.238Z,16.23
2023-05-25T01:36:09.217Z,16.15
2023-05-25T01:37:09.203Z,16.20
2023-05-25T01:38:09.197Z,16.15
2023-05-25T01:39:09.242Z,16.23
2023-05-25T01:40:09.169Z,16.24
2023-05-25T01:41:09.158Z,16.21
2023-05-25T01:42:09.224Z,16.26
2023-05-25T01:43:09.145Z,16.23
2023-05-25T01:44:09.130Z,16.24
2023-05-25T01:45:09.125Z,16.32
2023-05-25T01:46:09.201Z,16.28
2023-05-25T01:47:09.096Z,16.33
2023-05-25T01:48:09.262Z,16.29
2023-05-25T01:49:09.074Z,16.31
2023-05-25T01:50:09.060Z,16.28
2023-05-25T01:51:09.080Z,16.32
2023-05-25T01:52:09.203Z,16.32
2023-05-25T01:53:09.018Z,16.32
2023-05-25T01:54:09.032Z,16.32
2023-05-25T01:55:08.996Z,16.33
2023-05-25T01:56:09.005Z,16.33
2023-05-25T01:57:09.017Z,16.38
2023-05-25T01:58:08.985Z,16.35
2023-05-25T01:59:08.952Z,16.32
2023-05-25T02:00:08.945Z,16.33
2023-05-25T02:01:08.986Z,16.33
2023-05-25T02:02:08.929Z,16.39
2023-05-25T02:03:09.024Z,16.39
2023-05-25T02:04:08.958Z,16.35
2023-05-25T02:05:08.945Z,16.42
2023-05-25T02:06:08.874Z,16.36
2023-05-25T02:07:08.857Z,16.39
2023-05-25T02:08:08.849Z,16.35
2023-05-25T02:09:08.912Z,16.38
2023-05-25T02:10:08.831Z,16.42
2023-05-25T02:11:08.819Z,16.46
2023-05-25T02:12:08.822Z,16.43
2023-05-25T02:13:08.798Z,16.39
2023-05-25T02:14:08.807Z,16.43
2023-05-25T02:15:08.889Z,16.43
2023-05-25T02:16:08.803Z,16.39
2023-05-25T02:17:08.780Z,16.43
2023-05-25T02:18:08.764Z,16.43
2023-05-25T02:19:08.730Z,16.50
2023-05-25T02:20:08.862Z,16.49
2023-05-25T02:21:08.723Z,16.47
2023-05-25T02:22:08.715Z,16.36
2023-05-25T02:23:08.677Z,16.38
2023-05-25T02:24:08.709Z,16.47
2023-05-25T02:25:08.673Z,16.39
2023-05-25T02:26:08.657Z,16.41
2023-05-25T02:27:08.715Z,16.41
2023-05-25T02:28:08.629Z,16.41
2023-05-25T02:29:08.641Z,16.38
2023-05-25T02:30:08.599Z,16.42
2023-05-25T02:31:08.661Z,16.39
2023-05-25T02:32:08.585Z,16.42
2023-05-25T02:33:08.620Z,16.43
2023-05-25T02:34:08.574Z,16.32
2023-05-25T02:35:08.549Z,16.38
2023-05-25T02:36:08.664Z,16.33
2023-05-25T02:37:08.530Z,16.31
2023-05-25T02:38:08.540Z,16.29
2023-05-25T02:39:08.556Z,16.31
2023-05-25T02:40:08.550Z,16.20
2023-05-25T02:41:08.474Z,16.28
2023-05-25T02:42:08.485Z,16.29
2023-05-25T02:43:08.456Z,16.28
2023-05-25T02:44:08.451Z,16.36
2023-05-25T02:45:08.460Z,16.17
2023-05-25T02:46:08.435Z,16.21
2023-05-25T02:47:08.641Z,16.26
2023-05-25T02:48:08.439Z,16.17
2023-05-25T02:49:08.382Z,16.23
2023-05-25T02:50:08.383Z,16.21
2023-05-25T02:51:08.449Z,16.15
2023-05-25T02:52:08.397Z,16.16
2023-05-25T02:53:08.341Z,16.21
2023-05-25T02:54:08.330Z,16.16
2023-05-25T02:55:08.321Z,16.16
2023-05-25T02:56:08.357Z,16.08
2023-05-25T02:57:08.345Z,16.04
2023-05-25T02:58:08.308Z,16.10
2023-05-25T02:59:08.283Z,16.08
2023-05-25T03:00:08.287Z,16.16
2023-05-25T03:01:08.297Z,16.09
2023-05-25T03:02:08.237Z,16.08
2023-05-25T03:03:08.358Z,16.15
2023-05-25T03:04:08.310Z,16.09
2023-05-25T03:05:08.204Z,16.12
2023-05-25T03:06:08.214Z,16.10
2023-05-25T03:07:08.201Z,16.12
2023-05-25T03:08:08.192Z,16.12
2023-05-25T03:09:08.223Z,16.13
2023-05-25T03:10:08.145Z,16.10
2023-05-25T03:11:08.135Z,16.12
2023-05-25T03:12:08.125Z,16.17
2023-05-25T03:13:08.108Z,16.15
2023-05-25T03:14:08.150Z,16.10
2023-05-25T03:15:08.122Z,16.20
2023-05-25T03:16:08.135Z,16.16
2023-05-25T03:17:08.196Z,16.16
2023-05-25T03:18:08.071Z,16.20
2023-05-25T03:19:08.051Z,16.24
2023-05-25T03:20:08.081Z,16.24
2023-05-25T03:21:08.033Z,16.21
2023-05-25T03:22:08.043Z,16.36
2023-05-25T03:23:07.993Z,16.29
2023-05-25T03:24:08.019Z,16.29
2023-05-25T03:25:07.965Z,16.31
2023-05-25T03:26:07.994Z,16.33
2023-05-25T03:27:07.956Z,16.33
2023-05-25T03:28:07.956Z,16.38
2023-05-25T03:29:07.922Z,16.39
2023-05-25T03:30:07.922Z,16.49
2023-05-25T03:31:07.905Z,16.41
2023-05-25T03:32:08.034Z,16.42
2023-05-25T03:33:07.946Z,16.42
2023-05-25T03:34:07.901Z,16.51
2023-05-25T03:35:07.854Z,16.50
2023-05-25T03:36:07.858Z,16.56
2023-05-25T03:37:07.831Z,16.60
2023-05-25T03:38:07.822Z,16.56
2023-05-25T03:39:07.841Z,16.54
2023-05-25T03:40:07.840Z,16.54
2023-05-25T03:41:07.782Z,16.60
2023-05-25T03:42:07.782Z,16.64
2023-05-25T03:43:07.912Z,16.64
2023-05-25T03:44:07.761Z,16.60
2023-05-25T03:45:07.785Z,16.64
2023-05-25T03:46:07.828Z,16.72
2023-05-25T03:47:07.746Z,16.79
2023-05-25T03:48:07.709Z,16.71
2023-05-25T03:49:07.709Z,16.71
2023-05-25T03:50:07.681Z,16.76
2023-05-25T03:51:07.737Z,16.78
2023-05-25T03:52:07.657Z,16.79
2023-05-25T03:53:07.720Z,16.89
2023-05-25T03:54:07.711Z,16.86
2023-05-25T03:55:07.650Z,16.87
2023-05-25T03:56:07.657Z,16.86
2023-05-25T03:57:08.516Z,16.78
2023-05-25T03:58:07.567Z,16.83
2023-05-25T03:59:07.595Z,16.89
2023-05-25T04:00:07.544Z,16.90
2023-05-25T04:01:07.537Z,16.94
2023-05-25T04:02:07.667Z,16.96
2023-05-25T04:03:07.630Z,16.93
2023-05-25T04:04:07.544Z,17.02
2023-05-25T04:05:07.489Z,17.04
2023-05-25T04:06:07.476Z,17.04
2023-05-25T04:07:07.475Z,17.06
2023-05-25T04:08:07.483Z,17.04
2023-05-25T04:09:07.472Z,17.20
2023-05-25T04:10:07.466Z,17.19
2023-05-25T04:11:07.422Z,17.16
2023-05-25T04:12:07.443Z,17.15
2023-05-25T04:13:07.425Z,17.22
2023-05-25T04:14:07.386Z,17.23
2023-05-25T04:15:07.421Z,17.27
2023-05-25T04:16:08.226Z,17.29
2023-05-25T04:17:07.399Z,17.33
2023-05-25T04:18:07.402Z,17.41
2023-05-25T04:19:07.344Z,17.44
2023-05-25T04:20:07.397Z,17.38
2023-05-25T04:21:07.347Z,17.39
2023-05-25T04:22:07.309Z,17.51
2023-05-25T04:23:07.313Z,17.56
2023-05-25T04:24:07.327Z,17.54
2023-05-25T04:25:07.305Z,17.57
2023-05-25T04:26:07.272Z,17.64
2023-05-25T04:27:07.311Z,17.67
2023-05-25T04:28:07.272Z,17.78
2023-05-25T04:29:07.260Z,17.78
2023-05-25T04:30:07.263Z,17.86
2023-05-25T04:31:07.254Z,17.89
2023-05-25T04:32:07.215Z,17.97
2023-05-25T04:33:07.294Z,18.01
2023-05-25T04:34:07.188Z,18.08
2023-05-25T04:35:07.172Z,18.41
2023-05-25T04:36:07.170Z,18.62
2023-05-25T04:37:07.158Z,18.66
2023-05-25T04:38:07.165Z,18.86
2023-05-25T04:39:07.168Z,19.11
2023-05-25T04:40:07.142Z,19.22
2023-05-25T04:41:07.135Z,19.40
2023-05-25T04:42:07.098Z,19.54
2023-05-25T04:43:07.100Z,19.64
2023-05-25T04:44:10.086Z,19.74
2023-05-25T04:45:07.076Z,19.85
2023-05-25T04:46:07.098Z,19.89
2023-05-25T04:47:07.042Z,19.85
2023-05-25T04:48:07.078Z,19.89
2023-05-25T04:49:07.064Z,19.89
2023-05-25T04:50:07.022Z,19.88
2023-05-25T04:51:07.066Z,19.99
2023-05-25T04:52:07.016Z,20.02
2023-05-25T04:53:07.004Z,19.91
2023-05-25T04:54:06.968Z,19.99
2023-05-25T04:55:06.960Z,20.03
2023-05-25T04:56:06.948Z,20.02
2023-05-25T04:57:06.984Z,20.06
2023-05-25T04:58:07.042Z,19.95
2023-05-25T04:59:06.902Z,20.10
2023-05-25T05:00:06.953Z,20.09
2023-05-25T05:01:06.925Z,20.14
2023-05-25T05:02:06.868Z,20.09
2023-05-25T05:03:06.942Z,20.14
2023-05-25T05:04:06.865Z,20.21
2023-05-25T05:05:06.848Z,20.26
2023-05-25T05:06:06.825Z,20.25
2023-05-25T05:07:06.811Z,20.25
2023-05-25T05:08:06.816Z,20.31
2023-05-25T05:09:06.821Z,20.29
2023-05-25T05:10:06.785Z,20.40
2023-05-25T05:11:06.800Z,20.39
2023-05-25T05:12:06.772Z,20.31
2023-05-25T05:13:06.757Z,20.32
2023-05-25T05:14:06.735Z,20.43
2023-05-25T05:15:06.796Z,20.52
2023-05-25T05:16:06.779Z,20.50
2023-05-25T05:17:06.775Z,20.51
2023-05-25T05:18:06.710Z,20.59
2023-05-25T05:19:06.680Z,20.55
2023-05-25T05:20:06.718Z,20.60
2023-05-25T05:21:06.781Z,20.58
2023-05-25T05:22:06.649Z,20.75
2023-05-25T05:23:06.631Z,20.77
2023-05-25T05:24:06.639Z,20.78
2023-05-25T05:25:06.652Z,20.82
2023-05-25T05:26:06.698Z,20.82
2023-05-25T05:27:06.621Z,20.92
2023-05-25T05:28:06.601Z,20.99
2023-05-25T05:29:06.573Z,20.96
2023-05-25T05:30:06.561Z,21.03
2023-05-25T05:31:06.564Z,21.00
2023-05-25T05:32:06.637Z,20.95
2023-05-25T05:33:06.750Z,20.96
2023-05-25T05:34:06.687Z,21.00
2023-05-25T05:35:06.519Z,21.00
2023-05-25T05:36:06.550Z,21.11
2023-05-25T05:37:06.476Z,21.05
2023-05-25T05:38:06.466Z,21.17
2023-05-25T05:39:06.486Z,21.21
2023-05-25T05:40:06.449Z,21.22
2023-05-25T05:41:06.558Z,21.20
2023-05-25T05:42:06.491Z,21.21
2023-05-25T05:43:06.413Z,21.21
2023-05-25T05:44:06.397Z,21.21
2023-05-25T05:45:06.401Z,21.18
2023-05-25T05:46:06.393Z,21.21
2023-05-25T05:47:06.378Z,21.32
2023-05-25T05:48:06.427Z,21.37
2023-05-25T05:49:06.433Z,21.39
2023-05-25T05:50:06.343Z,21.33
2023-05-25T05:51:06.370Z,21.17
2023-05-25T05:52:06.302Z,21.15
2023-05-25T05:53:06.288Z,21.21
2023-05-25T05:54:06.360Z,21.18
2023-05-25T05:55:06.282Z,21.21
2023-05-25T05:56:06.259Z,21.18
2023-05-25T05:57:06.279Z,21.00
2023-05-25T05:58:06.237Z,21.07
2023-05-25T05:59:06.222Z,21.02
2023-05-25T06:00:06.220Z,20.96
2023-05-25T06:01:06.235Z,21.00
2023-05-25T06:02:06.211Z,20.99
2023-05-25T06:03:06.274Z,21.00
2023-05-25T06:04:06.254Z,20.96
2023-05-25T06:05:06.199Z,21.06
2023-05-25T06:06:06.242Z,21.12
2023-05-25T06:07:06.160Z,21.00
2023-05-25T06:08:06.877Z,21.05
2023-05-25T06:09:06.301Z,21.20
2023-05-25T06:10:06.123Z,21.12
2023-05-25T06:11:06.080Z,21.20
2023-05-25T06:12:06.073Z,21.25
2023-05-25T06:13:06.103Z,21.27
2023-05-25T06:14:06.130Z,21.32
2023-05-25T06:15:06.106Z,21.25
2023-05-25T06:16:06.093Z,21.24
2023-05-25T06:17:06.186Z,21.29
2023-05-25T06:18:06.619Z,21.43
2023-05-25T06:19:06.008Z,21.57
2023-05-25T06:20:06.064Z,21.69
2023-05-25T06:21:05.991Z,21.73
2023-05-25T06:22:06.120Z,21.80
2023-05-25T06:23:05.969Z,21.93
2023-05-25T06:24:06.079Z,22.02
2023-05-25T06:25:05.930Z,22.15
2023-05-25T06:26:05.960Z,22.28
2023-05-25T06:27:06.085Z,22.35
2023-05-25T06:28:05.899Z,22.41
2023-05-25T06:29:05.887Z,22.59
2023-05-25T06:30:05.910Z,22.59
2023-05-25T06:31:05.866Z,22.54
2023-05-25T06:32:05.929Z,22.50
2023-05-25T06:33:05.920Z,22.45
2023-05-25T06:34:05.824Z,22.32
2023-05-25T06:35:07.983Z,22.32
2023-05-25T06:36:05.949Z,22.39
2023-05-25T06:37:05.798Z,22.35
2023-05-25T06:38:05.808Z,22.39
2023-05-25T06:39:05.817Z,22.35
2023-05-25T06:40:05.783Z,22.43
2023-05-25T06:41:05.757Z,22.57
2023-05-25T06:42:05.754Z,22.53
2023-05-25T06:43:05.730Z,22.54
2023-05-25T06:44:05.734Z,22.50
2023-05-25T06:45:05.725Z,22.54
2023-05-25T06:46:06.067Z,22.53
2023-05-25T06:47:05.734Z,22.53
2023-05-25T06:48:05.702Z,22.66
2023-05-25T06:49:05.662Z,22.65
2023-05-25T06:50:05.648Z,22.62
2023-05-25T06:51:05.679Z,22.55
2023-05-25T06:52:05.703Z,22.55
2023-05-25T06:53:05.610Z,22.68
2023-05-25T06:54:05.691Z,22.72
2023-05-25T06:55:05.617Z,22.65
2023-05-25T06:56:05.608Z,22.63
2023-05-25T06:57:05.630Z,22.70
2023-05-25T06:58:05.554Z,22.55
2023-05-25T06:59:05.547Z,22.57
2023-05-25T07:00:05.536Z,22.53
2023-05-25T07:01:05.600Z,22.51
2023-05-25T07:02:05.532Z,22.38
2023-05-25T07:03:06.233Z,22.35
2023-05-25T07:04:05.504Z,22.44
2023-05-25T07:05:05.669Z,22.39
2023-05-25T07:06:05.482Z,22.36
2023-05-25T07:07:05.540Z,22.44
2023-05-25T07:08:05.486Z,22.38
2023-05-25T07:09:05.500Z,22.43
2023-05-25T07:10:05.442Z,22.36
2023-05-25T07:11:05.412Z,22.41
2023-05-25T07:12:05.400Z,22.35
2023-05-25T07:13:05.407Z,22.36
2023-05-25T07:14:05.399Z,22.38
2023-05-25T07:15:05.438Z,22.48
2023-05-25T07:16:05.372Z,22.50
2023-05-25T07:17:05.349Z,22.47
2023-05-25T07:18:05.375Z,22.41
2023-05-25T07:19:05.341Z,22.32
2023-05-25T07:20:05.392Z,22.35
2023-05-25T07:21:05.349Z,22.36
2023-05-25T07:22:05.294Z,22.36
2023-05-25T07:23:05.294Z,22.38
2023-05-25T07:24:05.316Z,22.33
2023-05-25T07:25:05.258Z,22.28
2023-05-25T07:26:05.996Z,22.36
2023-05-25T07:27:05.282Z,22.33
2023-05-25T07:28:05.233Z,22.32
2023-05-25T07:29:05.211Z,22.39
2023-05-25T07:30:05.208Z,22.44
2023-05-25T07:31:05.243Z,22.47
2023-05-25T07:32:05.185Z,22.47
2023-05-25T07:33:05.237Z,22.53
2023-05-25T07:34:05.175Z,22.50
2023-05-25T07:35:05.144Z,22.53
2023-05-25T07:36:05.152Z,22.57
2023-05-25T07:37:05.135Z,22.53
2023-05-25T07:38:05.127Z,22.45
2023-05-25T07:39:05.639Z,22.41
2023-05-25T07:40:05.138Z,22.47
2023-05-25T07:41:05.083Z,22.44
2023-05-25T07:42:05.077Z,22.35
2023-05-25T07:43:06.859Z,22.33
2023-05-25T07:44:05.054Z,22.26
2023-05-25T07:45:05.128Z,22.22
2023-05-25T07:46:05.025Z,22.13
2023-05-25T07:47:05.072Z,22.25
2023-05-25T07:48:05.030Z,22.25
2023-05-25T07:49:05.007Z,22.18
2023-05-25T07:50:04.974Z,22.23
2023-05-25T07:51:05.007Z,22.36
2023-05-25T07:52:04.977Z,22.38
2023-05-25T07:53:04.937Z,22.44
2023-05-25T07:54:04.955Z,22.51
2023-05-25T07:55:04.953Z,22.60
2023-05-25T07:56:04.948Z,22.70
2023-05-25T07:57:04.958Z,22.62
2023-05-25T07:58:04.981Z,22.63
2023-05-25T07:59:05.549Z,22.65
2023-05-25T08:00:04.882Z,22.76
2023-05-25T08:01:05.039Z,22.80
2023-05-25T08:02:04.893Z,22.81
2023-05-25T08:03:05.079Z,22.87
2023-05-25T08:04:04.955Z,22.83
2023-05-25T08:05:04.878Z,22.84
2023-05-25T08:06:04.829Z,22.88
2023-05-25T08:07:04.786Z,22.94
2023-05-25T08:08:04.812Z,23.05
2023-05-25T08:09:04.856Z,23.08
2023-05-25T08:10:04.778Z,23.18
2023-05-25T08:11:05.091Z,23.25
2023-05-25T08:12:24.199Z,23.40
2023-05-25T08:13:05.744Z,23.56
2023-05-25T08:14:04.716Z,23.61
2023-05-25T08:15:04.731Z,23.71
2023-05-25T08:16:04.688Z,23.81
2023-05-25T08:17:04.754Z,23.83
2023-05-25T08:18:04.782Z,23.81
2023-05-25T08:19:04.643Z,23.78
2023-05-25T08:20:04.747Z,23.81
2023-05-25T08:21:04.661Z,23.81
2023-05-25T08:22:04.615Z,23.83
2023-05-25T08:23:04.618Z,23.99
2023-05-25T08:24:04.618Z,23.96
2023-05-25T08:25:04.913Z,23.93
2023-05-25T08:26:14.619Z,23.93
2023-05-25T08:27:05.659Z,23.92
2023-05-25T08:28:04.567Z,23.87
2023-05-25T08:29:04.546Z,23.80
2023-05-25T08:30:04.550Z,23.81
2023-05-25T08:31:05.194Z,23.78
2023-05-25T08:32:04.530Z,23.83
2023-05-25T08:33:04.536Z,23.77
2023-05-25T08:34:04.481Z,23.83
2023-05-25T08:35:04.465Z,23.83
2023-05-25T08:36:04.466Z,23.80
2023-05-25T08:37:04.445Z,23.83
2023-05-25T08:38:04.529Z,23.76
2023-05-25T08:39:04.450Z,23.80
2023-05-25T08:40:04.413Z,23.83
2023-05-25T08:41:04.401Z,23.77
2023-05-25T08:42:04.589Z,23.80
2023-05-25T08:43:04.366Z,23.80
2023-05-25T08:44:04.384Z,23.77
2023-05-25T08:45:04.373Z,23.77
2023-05-25T08:46:04.367Z,23.80
2023-05-25T08:47:04.335Z,23.77
2023-05-25T08:48:04.411Z,23.80
2023-05-25T08:49:04.594Z,23.80
2023-05-25T08:50:04.310Z,23.77
2023-05-25T08:51:04.338Z,23.84
2023-05-25T08:52:06.052Z,23.83
2023-05-25T08:53:05.130Z,23.92
2023-05-25T08:54:05.141Z,23.91
2023-05-25T08:55:04.275Z,23.91
2023-05-25T08:56:04.250Z,23.91
2023-05-25T08:57:04.297Z,23.84
2023-05-25T08:58:04.207Z,23.93
2023-05-25T08:59:06.546Z,23.93
2023-05-25T09:00:04.217Z,24.03
2023-05-25T09:01:04.165Z,24.06
2023-05-25T09:02:04.199Z,24.14
2023-05-25T09:03:04.305Z,24.20
2023-05-25T09:04:04.196Z,24.23
2023-05-25T09:05:04.158Z,24.32
2023-05-25T09:06:04.114Z,24.42
2023-05-25T09:07:10.194Z,24.39
2023-05-25T09:08:05.117Z,24.48
2023-05-25T09:09:04.079Z,24.54
2023-05-25T09:10:04.059Z,24.51
2023-05-25T09:11:04.623Z,24.57
2023-05-25T09:12:04.044Z,24.51
2023-05-25T09:13:16.700Z,24.61
2023-05-25T09:14:05.079Z,24.61
2023-05-25T09:15:04.004Z,24.69
2023-05-25T09:16:04.035Z,24.69
2023-05-25T09:17:04.103Z,24.66
2023-05-25T09:18:05.417Z,24.70
2023-05-25T09:19:03.965Z,24.74
2023-05-25T09:20:04.100Z,24.76
2023-05-25T09:21:04.052Z,24.73
2023-05-25T09:22:14.721Z,24.78
2023-05-25T09:23:04.926Z,24.76
2023-05-25T09:24:04.634Z,24.73
2023-05-25T09:25:03.922Z,24.77
2023-05-25T09:26:05.220Z,24.85
2023-05-25T09:27:03.884Z,24.84
2023-05-25T09:28:21.374Z,24.74
2023-05-25T09:29:04.865Z,24.69
2023-05-25T09:30:03.852Z,24.65
2023-05-25T09:31:03.835Z,24.66
2023-05-25T09:32:04.272Z,24.73
2023-05-25T09:33:03.862Z,24.69
2023-05-25T09:34:03.822Z,24.80
2023-05-25T09:35:03.792Z,24.73
2023-05-25T09:36:03.789Z,24.77
2023-05-25T09:37:04.022Z,24.74
2023-05-25T09:38:04.032Z,24.80
2023-05-25T09:39:04.118Z,24.81
2023-05-25T09:40:03.741Z,24.84
2023-05-25T09:41:03.724Z,24.80
2023-05-25T09:42:04.628Z,24.78
2023-05-25T09:43:03.714Z,24.80
2023-05-25T09:44:10.909Z,24.88
2023-05-25T09:45:04.691Z,24.91
2023-05-25T09:46:03.719Z,24.91
2023-05-25T09:47:03.736Z,24.93
2023-05-25T09:48:03.717Z,25.01
2023-05-25T09:49:03.674Z,25.04
2023-05-25T09:50:03.654Z,24.96
2023-05-25T09:51:03.694Z,25.01
2023-05-25T09:52:03.609Z,24.99
2023-05-25T09:53:03.608Z,25.07
2023-05-25T09:54:03.586Z,25.04
2023-05-25T09:55:03.563Z,25.16
2023-05-25T09:56:04.236Z,25.06
2023-05-25T09:57:04.175Z,25.13
2023-05-25T09:58:04.145Z,25.16
2023-05-25T09:59:03.573Z,25.13
2023-05-25T10:00:03.626Z,25.14
2023-05-25T10:01:03.546Z,25.17
2023-05-25T10:02:03.595Z,25.26
2023-05-25T10:03:03.514Z,25.32
2023-05-25T10:04:05.275Z,25.31
2023-05-25T10:05:03.546Z,25.46
2023-05-25T10:06:03.461Z,25.43
2023-05-25T10:07:03.667Z,25.48
2023-05-25T10:08:03.702Z,25.46
2023-05-25T10:09:04.261Z,25.48
2023-05-25T10:10:04.249Z,25.58
2023-05-25T10:11:03.403Z,25.63
2023-05-25T10:12:04.172Z,25.60
2023-05-25T10:13:03.370Z,25.62
2023-05-25T10:14:03.380Z,25.55
2023-05-25T10:15:03.398Z,25.58
2023-05-25T10:16:03.352Z,25.69
2023-05-25T10:17:03.323Z,25.59
2023-05-25T10:18:03.373Z,25.73
2023-05-25T10:19:03.325Z,25.75
2023-05-25T10:20:03.411Z,25.81
2023-05-25T10:21:03.966Z,25.80
2023-05-25T10:22:04.135Z,25.91
2023-05-25T10:23:03.264Z,26.00
2023-05-25T10:24:03.244Z,25.98
2023-05-25T10:25:03.364Z,26.05
2023-05-25T10:26:03.277Z,26.06
2023-05-25T10:27:10.958Z,26.02
2023-05-25T10:28:04.219Z,26.10
2023-05-25T10:29:03.214Z,26.16
2023-05-25T10:30:03.201Z,26.15
2023-05-25T10:31:03.232Z,26.18
2023-05-25T10:32:03.256Z,26.15
2023-05-25T10:33:03.286Z,26.07
2023-05-25T10:34:03.244Z,26.09
2023-05-25T10:35:03.653Z,26.02
2023-05-25T10:37:04.738Z,25.90
2023-05-25T10:38:03.098Z,25.98
2023-05-25T10:39:03.879Z,25.91
2023-05-25T10:40:03.080Z,25.91
2023-05-25T10:41:03.058Z,25.88
2023-05-25T10:42:03.167Z,25.85
2023-05-25T10:43:03.359Z,25.78
2023-05-25T10:44:03.023Z,25.84
2023-05-25T10:45:03.009Z,25.81
2023-05-25T10:46:03.082Z,25.88
2023-05-25T10:47:03.049Z,25.85
2023-05-25T10:48:03.010Z,25.96
2023-05-25T10:49:03.229Z,25.96
2023-05-25T10:50:03.034Z,25.99
2023-05-25T10:51:03.391Z,26.00
2023-05-25T10:52:03.644Z,26.09
2023-05-25T10:53:02.923Z,26.18
2023-05-25T10:54:02.940Z,26.25
2023-05-25T10:55:02.952Z,26.18
2023-05-25T10:56:03.039Z,26.26
2023-05-25T10:57:02.874Z,26.19
2023-05-25T10:58:02.867Z,26.16
2023-05-25T10:59:03.017Z,26.26
2023-05-25T11:00:03.035Z,26.22
2023-05-25T11:01:03.278Z,26.28
2023-05-25T11:02:03.096Z,26.34
2023-05-25T11:03:05.260Z,26.34
2023-05-25T11:04:02.874Z,26.31
2023-05-25T11:05:02.885Z,26.29
2023-05-25T11:06:02.876Z,26.31
2023-05-25T11:07:02.852Z,26.34
2023-05-25T11:08:02.907Z,26.21
2023-05-25T11:09:02.836Z,26.22
2023-05-25T11:10:02.736Z,26.13
2023-05-25T11:11:02.727Z,26.16
2023-05-25T11:12:03.766Z,26.16
2023-05-25T11:13:02.729Z,26.13
2023-05-25T11:14:02.685Z,26.05
2023-05-25T11:15:02.679Z,26.09
2023-05-25T11:16:02.724Z,26.10
2023-05-25T11:17:02.691Z,26.15
2023-05-25T11:18:02.705Z,26.25
2023-05-25T11:19:02.686Z,26.31
2023-05-25T11:20:02.728Z,26.33
2023-05-25T11:21:02.635Z,26.38
2023-05-25T11:22:02.602Z,26.44
2023-05-25T11:23:03.181Z,26.56
2023-05-25T11:24:02.683Z,26.58
2023-05-25T11:25:02.814Z,26.63
2023-05-25T11:26:02.743Z,26.68
2023-05-25T11:27:02.590Z,26.66
2023-05-25T11:28:02.597Z,26.78
2023-05-25T11:29:02.594Z,26.84
2023-05-25T11:30:02.635Z,26.88
2023-05-25T11:31:02.672Z,26.97
2023-05-25T11:32:02.501Z,27.02
2023-05-25T11:33:02.518Z,26.97
2023-05-25T11:34:02.466Z,27.02
2023-05-25T11:35:02.462Z,26.99
2023-05-25T11:36:02.441Z,26.99
2023-05-25T11:37:02.530Z,26.96
2023-05-25T11:38:02.465Z,26.93
2023-05-25T11:39:06.733Z,27.00
2023-05-25T11:40:03.550Z,26.88
2023-05-25T11:41:02.586Z,26.93
2023-05-25T11:42:02.392Z,26.88
2023-05-25T11:43:02.639Z,26.99
2023-05-25T11:44:02.346Z,26.97
2023-05-25T11:45:02.357Z,27.10
2023-05-25T11:46:02.367Z,27.17
2023-05-25T11:47:02.529Z,27.21
2023-05-25T11:48:02.392Z,27.20
2023-05-25T11:49:02.538Z,27.20
2023-05-25T11:50:02.623Z,27.18
2023-05-25T11:51:02.273Z,27.25
2023-05-25T11:52:02.265Z,27.20
2023-05-25T11:53:02.251Z,27.25
2023-05-25T11:54:02.350Z,27.22
2023-05-25T11:55:02.373Z,27.20
2023-05-25T11:56:08.084Z,27.21
2023-05-25T11:57:03.456Z,27.20
2023-05-25T11:58:02.458Z,27.26
2023-05-25T11:59:02.253Z,27.21
2023-05-25T12:00:02.258Z,27.02
2023-05-25T12:01:02.205Z,27.10
2023-05-25T12:02:02.336Z,27.05
2023-05-25T12:03:02.785Z,27.02
2023-05-25T12:04:02.325Z,27.02
2023-05-25T12:05:02.467Z,26.97
2023-05-25T12:06:02.179Z,26.97
2023-05-25T12:07:02.213Z,26.96
2023-05-25T12:08:02.074Z,27.02
2023-05-25T12:09:02.083Z,26.95
2023-05-25T12:10:02.684Z,26.97
2023-05-25T12:11:02.155Z,27.02
2023-05-25T12:12:02.382Z,26.97
2023-05-25T12:13:02.124Z,26.95
2023-05-25T12:14:02.222Z,26.83
2023-05-25T12:15:02.091Z,26.81
2023-05-25T12:16:02.220Z,26.73
2023-05-25T12:17:02.075Z,26.77
2023-05-25T12:18:02.116Z,26.74
2023-05-25T12:19:02.033Z,26.65
2023-05-25T12:20:02.041Z,26.63
2023-05-25T12:21:02.090Z,26.65
2023-05-25T12:22:02.691Z,26.52
2023-05-25T12:23:02.138Z,26.58
2023-05-25T12:24:01.894Z,26.47
2023-05-25T12:25:02.118Z,26.41
2023-05-25T12:26:01.877Z,26.41
2023-05-25T12:27:02.009Z,26.40
2023-05-25T12:28:02.713Z,26.41
2023-05-25T12:29:01.855Z,26.41
2023-05-25T12:30:01.885Z,26.41
2023-05-25T12:31:01.992Z,26.38
2023-05-25T12:32:01.834Z,26.34
2023-05-25T12:33:02.860Z,26.23
2023-05-25T12:34:01.859Z,26.21
2023-05-25T12:35:01.828Z,26.22
2023-05-25T12:36:01.877Z,26.10
2023-05-25T12:37:02.888Z,26.10
2023-05-25T12:38:01.844Z,26.05
2023-05-25T12:39:01.752Z,26.06
2023-05-25T12:40:01.730Z,25.96
2023-05-25T12:41:01.783Z,25.96
2023-05-25T12:42:01.780Z,25.88
2023-05-25T12:43:01.744Z,25.96
2023-05-25T12:44:01.800Z,25.96
2023-05-25T12:45:01.697Z,25.96
2023-05-25T12:46:01.849Z,25.90
2023-05-25T12:47:01.764Z,25.90
2023-05-25T12:48:02.499Z,25.91
2023-05-25T12:49:01.819Z,25.83
2023-05-25T12:50:01.733Z,25.83
2023-05-25T12:51:01.611Z,25.81
2023-05-25T12:52:02.641Z,25.88
2023-05-25T12:53:01.614Z,25.85